Time;durP1;ratioP1;P1;durP2;ratioP2;P2;SDS_P1;SDS_P2;PMS_P1;PMS_P2;Temp;Humidity;BMP_temperature;BMP_pressure;BME280_temperature;BME280_humidity;BME280_pressure;Samples;Min_cycle;Max_cycle;Signal;HPM_P1;HPM_P2
2021/11/16 00:02:17;;;;;;;29.20;18.05;;;;;;;-139.48;100.00;61774.03;4974417;28;20053;-68
2021/11/16 00:05:01;;;;;;;33.00;18.55;;;;;;;-139.48;100.00;61774.03;4959903;28;20504;-68
2021/11/16 00:07:48;;;;;;;33.25;19.70;;;;;;;-139.48;100.00;61774.03;4974396;28;20138;-68
2021/11/16 00:10:32;;;;;;;33.58;18.92;;;;;;;-139.48;100.00;61774.03;4973681;28;20482;-68
2021/11/16 00:13:17;;;;;;;32.00;17.92;;;;;;;-139.48;100.00;61774.03;4959473;28;20096;-67
2021/11/16 00:16:01;;;;;;;36.28;18.60;;;;;;;-139.48;100.00;61774.03;4973149;28;20049;-68
2021/11/16 00:18:47;;;;;;;32.85;19.10;;;;;;;-139.48;100.00;61774.03;4973387;28;20042;-68
2021/11/16 00:21:31;;;;;;;35.33;19.17;;;;;;;-139.48;100.00;61774.03;4973355;28;20120;-67
2021/11/16 00:24:19;;;;;;;35.30;18.92;;;;;;;-139.48;100.00;61774.03;4973384;28;20101;-68
2021/11/16 00:27:05;;;;;;;36.75;20.00;;;;;;;-139.48;100.00;61774.03;4960116;28;20053;-68
2021/11/16 00:29:48;;;;;;;36.40;20.40;;;;;;;-139.48;100.00;61774.03;4973287;28;20554;-68
2021/11/16 00:32:33;;;;;;;40.47;20.60;;;;;;;-139.48;100.00;61774.03;4973272;28;20057;-68
2021/11/16 00:35:17;;;;;;;35.25;20.25;;;;;;;-139.48;100.00;61774.03;4973543;28;20054;-68
2021/11/16 00:38:01;;;;;;;36.00;19.73;;;;;;;-139.48;100.00;61774.03;4973943;28;20090;-68
2021/11/16 00:40:45;;;;;;;36.55;19.83;;;;;;;-139.48;100.00;61774.03;4973301;28;20049;-68
2021/11/16 00:43:30;;;;;;;39.80;20.80;;;;;;;-139.48;100.00;61774.03;4972846;28;20141;-67
2021/11/16 00:46:14;;;;;;;38.70;22.23;;;;;;;-139.48;100.00;61774.03;4959561;28;20054;-67
2021/11/16 00:48:58;;;;;;;37.50;20.27;;;;;;;-139.48;100.00;61774.03;4972767;28;20074;-68
2021/11/16 00:51:42;;;;;;;38.05;20.45;;;;;;;-139.48;100.00;61774.03;4972857;28;20058;-68
2021/11/16 00:54:26;;;;;;;38.15;20.25;;;;;;;-139.48;100.00;61774.03;4972722;28;20085;-67
2021/11/16 00:57:10;;;;;;;35.83;20.80;;;;;;;-139.48;100.00;61774.03;4974047;28;20077;-68
2021/11/16 00:59:54;;;;;;;36.70;21.00;;;;;;;-139.48;100.00;61774.03;4975957;28;20061;-68
2021/11/16 01:02:38;;;;;;;33.50;19.67;;;;;;;-139.48;100.00;61774.03;4976115;28;20098;-67
2021/11/16 01:05:22;;;;;;;37.10;20.05;;;;;;;-139.48;100.00;61774.03;4977445;28;20053;-68
2021/11/16 01:08:07;;;;;;;35.35;19.10;;;;;;;-139.48;100.00;61774.03;4976391;28;20054;-68
2021/11/16 01:10:53;;;;;;;34.47;19.67;;;;;;;-139.48;100.00;61774.03;4978650;28;20081;-68
2021/11/16 01:13:37;;;;;;;33.85;19.67;;;;;;;-139.48;100.00;61774.03;4975961;28;20521;-68
2021/11/16 01:16:21;;;;;;;36.85;19.63;;;;;;;-139.48;100.00;61774.03;4976273;28;20419;-68
2021/11/16 01:19:07;;;;;;;33.53;19.33;;;;;;;-139.48;100.00;61774.03;4976205;28;20053;-67
2021/11/16 01:21:50;;;;;;;37.28;20.63;;;;;;;-139.48;100.00;61774.03;4975841;28;20074;-68
2021/11/16 01:24:35;;;;;;;35.58;20.73;;;;;;;-139.48;100.00;61774.03;4975941;28;20062;-68
2021/11/16 01:27:20;;;;;;;34.53;18.80;;;;;;;-139.48;100.00;61774.03;4962279;28;20597;-68
2021/11/16 01:30:08;;;;;;;36.08;20.17;;;;;;;-139.48;100.00;61774.03;4976946;28;20062;-68
2021/11/16 01:33:05;;;;;;;36.20;19.83;;;;;;;-139.48;100.00;61774.03;4962277;28;20053;-68
2021/11/16 01:35:49;;;;;;;35.30;20.17;;;;;;;-139.48;100.00;61774.03;4976022;28;20077;-68
2021/11/16 01:38:33;;;;;;;32.40;19.80;;;;;;;-139.48;100.00;61774.03;4975695;28;20090;-68
2021/11/16 01:41:18;;;;;;;33.67;19.60;;;;;;;-139.48;100.00;61774.03;4976073;28;20101;-68
2021/11/16 01:44:02;;;;;;;32.03;18.85;;;;;;;-139.48;100.00;61774.03;4975690;28;20109;-68
2021/11/16 01:46:46;;;;;;;34.10;18.38;;;;;;;-139.48;100.00;61774.03;4975374;28;20057;-68
2021/11/16 01:49:30;;;;;;;29.35;17.15;;;;;;;-139.48;100.00;61774.03;4975659;28;20074;-68
2021/11/16 01:52:15;;;;;;;29.65;16.08;;;;;;;-139.48;100.00;61774.03;4961992;28;20061;-68
2021/11/16 01:55:00;;;;;;;29.27;17.15;;;;;;;-139.48;100.00;61774.03;4962001;28;20154;-67
2021/11/16 01:57:44;;;;;;;30.83;18.05;;;;;;;-139.48;100.00;61774.03;4975213;28;20054;-68
2021/11/16 02:00:33;;;;;;;31.48;17.88;;;;;;;-139.48;100.00;61774.03;4975503;28;20101;-68
2021/11/16 02:03:18;;;;;;;34.08;17.65;;;;;;;-139.48;100.00;61774.03;4976121;28;20101;-68
2021/11/16 02:06:35;;;;;;;27.88;16.80;;;;;;;-139.48;100.00;61774.03;4976281;28;20074;-68
2021/11/16 02:09:19;;;;;;;24.00;15.35;;;;;;;-139.48;100.00;61774.03;4942397;28;20113;-68
2021/11/16 02:12:03;;;;;;;29.60;16.15;;;;;;;-139.48;100.00;61774.03;4961450;28;20181;-68
2021/11/16 02:14:48;;;;;;;33.90;19.00;;;;;;;-139.48;100.00;61774.03;4961516;28;20053;-68
2021/11/16 02:17:33;;;;;;;31.05;17.17;;;;;;;-139.48;100.00;61774.03;4961234;28;20070;-68
2021/11/16 02:20:17;;;;;;;32.03;16.55;;;;;;;-139.48;100.00;61774.03;4975359;28;20062;-68
2021/11/16 02:23:02;;;;;;;23.80;15.20;;;;;;;-139.48;100.00;61774.03;4974711;28;20053;-68
2021/11/16 02:25:48;;;;;;;34.33;18.45;;;;;;;-139.48;100.00;61774.03;4974754;28;20527;-68
2021/11/16 02:28:32;;;;;;;27.85;15.48;;;;;;;-139.48;100.00;61774.03;4974909;28;20551;-67
2021/11/16 02:31:17;;;;;;;29.05;15.45;;;;;;;-139.48;100.00;61774.03;4974714;28;20297;-67
2021/11/16 02:34:02;;;;;;;23.52;14.60;;;;;;;-139.48;100.00;61774.03;4975530;28;20077;-68
2021/11/16 02:36:46;;;;;;;26.58;15.60;;;;;;;-139.48;100.00;61774.03;4974759;28;20054;-67
2021/11/16 02:39:30;;;;;;;29.15;16.02;;;;;;;-139.48;100.00;61774.03;4961022;28;20097;-68
2021/11/16 02:42:18;;;;;;;26.55;15.18;;;;;;;-139.48;100.00;61774.03;4961014;28;20112;-68
2021/11/16 02:45:05;;;;;;;24.90;15.23;;;;;;;-139.48;100.00;61774.03;4974393;28;20503;-68
2021/11/16 02:47:49;;;;;;;29.35;14.77;;;;;;;-139.48;100.00;61774.03;4974392;28;20126;-68
2021/11/16 02:50:33;;;;;;;31.83;16.33;;;;;;;-139.48;100.00;61774.03;4974586;28;20078;-68
2021/11/16 02:53:17;;;;;;;26.67;16.23;;;;;;;-139.48;100.00;61774.03;4960513;28;20070;-68
2021/11/16 02:56:01;;;;;;;26.58;14.48;;;;;;;-139.48;100.00;61774.03;4975087;28;20093;-67
2021/11/16 02:58:45;;;;;;;23.25;14.35;;;;;;;-139.48;100.00;61774.03;4975597;28;20054;-68
2021/11/16 03:01:29;;;;;;;24.33;14.65;;;;;;;-139.48;100.00;61774.03;4960764;28;20053;-68
2021/11/16 03:04:21;;;;;;;25.40;14.43;;;;;;;-139.48;100.00;61774.03;4960390;28;20109;-68
2021/11/16 03:07:05;;;;;;;31.95;17.40;;;;;;;-139.48;100.00;61774.03;4974831;28;20054;-68
2021/11/16 03:09:50;;;;;;;29.90;16.88;;;;;;;-139.48;100.00;61774.03;4974228;28;20158;-68
2021/11/16 03:12:34;;;;;;;24.30;14.57;;;;;;;-139.48;100.00;61774.03;4975060;28;20054;-68
2021/11/16 03:15:19;;;;;;;28.45;15.82;;;;;;;-139.48;100.00;61774.03;4974058;28;20065;-68
2021/11/16 03:18:03;;;;;;;28.65;14.75;;;;;;;-139.48;100.00;61774.03;4973831;28;20084;-68
2021/11/16 03:20:47;;;;;;;29.83;16.42;;;;;;;-139.48;100.00;61774.03;4973932;28;20058;-68
2021/11/16 03:23:32;;;;;;;35.00;18.67;;;;;;;-139.48;100.00;61774.03;4960167;28;20275;-68
2021/11/16 03:26:17;;;;;;;31.23;18.70;;;;;;;-139.48;100.00;61774.03;4974239;28;20104;-68
2021/11/16 03:29:03;;;;;;;32.42;17.08;;;;;;;-139.48;100.00;61774.03;4974796;28;20102;-68
2021/11/16 03:31:52;;;;;;;29.75;16.92;;;;;;;-139.48;100.00;61774.03;4973949;28;20053;-68
2021/11/16 03:34:36;;;;;;;29.73;16.90;;;;;;;-139.48;100.00;61774.03;4960965;28;20053;-68
2021/11/16 03:37:21;;;;;;;28.92;16.38;;;;;;;-139.48;100.00;61774.03;4959913;28;20056;-67
2021/11/16 03:40:07;;;;;;;30.77;17.10;;;;;;;-139.48;100.00;61774.03;4973814;28;20065;-68
2021/11/16 03:42:52;;;;;;;31.42;18.15;;;;;;;-139.48;100.00;61774.03;4960014;28;20558;-68
2021/11/16 03:45:37;;;;;;;29.42;15.88;;;;;;;-139.48;100.00;61774.03;4973747;28;20247;-68
2021/11/16 03:48:21;;;;;;;32.17;17.58;;;;;;;-139.48;100.00;61774.03;4973452;28;20097;-68
2021/11/16 03:51:05;;;;;;;33.03;17.67;;;;;;;-139.48;100.00;61774.03;4973503;28;20476;-68
2021/11/16 03:53:50;;;;;;;34.08;18.33;;;;;;;-139.48;100.00;61774.03;4973381;28;20523;-68
2021/11/16 03:56:34;;;;;;;31.52;17.55;;;;;;;-139.48;100.00;61774.03;4974066;28;20118;-68
2021/11/16 03:59:18;;;;;;;30.08;15.23;;;;;;;-139.48;100.00;61774.03;4973705;28;20133;-67
2021/11/16 04:02:03;;;;;;;28.65;16.60;;;;;;;-139.48;100.00;61774.03;4974376;28;20520;-68
2021/11/16 04:04:52;;;;;;;25.15;15.63;;;;;;;-139.48;100.00;61774.03;4975135;28;20104;-68
2021/11/16 04:07:36;;;;;;;26.05;15.45;;;;;;;-139.48;100.00;61774.03;4974289;28;20054;-68
2021/11/16 04:10:22;;;;;;;25.75;14.95;;;;;;;-139.48;100.00;61774.03;4973629;28;20053;-68
2021/11/16 04:13:07;;;;;;;28.15;16.00;;;;;;;-139.48;100.00;61774.03;4959717;28;20116;-68
2021/11/16 04:15:52;;;;;;;31.20;17.80;;;;;;;-139.48;100.00;61774.03;4959906;28;20053;-68
2021/11/16 04:18:36;;;;;;;32.90;18.35;;;;;;;-139.48;100.00;61774.03;4973463;28;20169;-68
2021/11/16 04:21:20;;;;;;;35.90;19.92;;;;;;;-139.48;100.00;61774.03;4973421;28;20046;-67
2021/11/16 04:24:04;;;;;;;47.28;21.80;;;;;;;-139.48;100.00;61774.03;4973603;28;20078;-68
2021/11/16 04:26:48;;;;;;;37.92;20.08;;;;;;;-139.48;100.00;61774.03;4973386;28;20050;-67
2021/11/16 04:29:32;;;;;;;33.40;16.48;;;;;;;-139.48;100.00;61774.03;4974281;28;20126;-67
2021/11/16 04:32:15;;;;;;;31.65;17.60;;;;;;;-139.48;100.00;61774.03;4959662;28;20133;-68
2021/11/16 04:34:59;;;;;;;26.92;16.15;;;;;;;-139.48;100.00;61774.03;4963014;28;20054;-68
2021/11/16 04:37:45;;;;;;;31.65;17.90;;;;;;;-139.48;100.00;61774.03;4963344;28;20085;-68
2021/11/16 04:40:32;;;;;;;31.52;16.30;;;;;;;-139.48;100.00;61774.03;4976964;28;20054;-68
2021/11/16 04:43:20;;;;;;;27.38;16.50;;;;;;;-139.48;100.00;61774.03;4963365;28;20065;-68
2021/11/16 04:46:07;;;;;;;30.85;17.17;;;;;;;-139.48;100.00;61774.03;4963299;28;20109;-68
2021/11/16 04:48:57;;;;;;;33.88;17.50;;;;;;;-139.48;100.00;61774.03;4963527;28;20053;-68
2021/11/16 05:03:10;;;;;;;29.27;17.02;;;;;;;-139.48;100.00;61774.03;4976668;28;20084;-68
2021/11/16 05:05:54;;;;;;;31.98;17.98;;;;;;;-139.48;100.00;61774.03;4976518;28;20093;-68
2021/11/16 05:08:40;;;;;;;29.23;16.92;;;;;;;-139.48;100.00;61774.03;4976382;28;20078;-68
2021/11/16 05:11:25;;;;;;;30.52;16.63;;;;;;;-139.48;100.00;61774.03;4976257;28;20061;-68
2021/11/16 05:14:10;;;;;;;30.35;17.00;;;;;;;-139.48;100.00;61774.03;4962406;28;20062;-68
2021/11/16 05:16:54;;;;;;;33.58;17.65;;;;;;;-139.48;100.00;61774.03;4976295;28;20078;-68
2021/11/16 05:19:38;;;;;;;39.33;18.77;;;;;;;-139.48;100.00;61774.03;4962531;28;20093;-68
2021/11/16 05:22:23;;;;;;;34.40;17.90;;;;;;;-139.48;100.00;61774.03;4976352;28;20050;-68
2021/11/16 05:25:07;;;;;;;37.30;18.88;;;;;;;-139.48;100.00;61774.03;4975914;28;20053;-68
2021/11/16 05:27:51;;;;;;;34.20;19.35;;;;;;;-139.48;100.00;61774.03;4975725;28;20142;-68
2021/11/16 05:30:36;;;;;;;32.72;17.98;;;;;;;-139.48;100.00;61774.03;4976179;28;20138;-67
2021/11/16 05:33:22;;;;;;;30.65;16.30;;;;;;;-139.48;100.00;61774.03;4975726;28;20093;-67
2021/11/16 05:36:06;;;;;;;28.23;16.08;;;;;;;-139.48;100.00;61774.03;4975671;28;20106;-68
2021/11/16 05:38:50;;;;;;;35.13;18.45;;;;;;;-139.48;100.00;61774.03;4975655;28;20049;-68
2021/11/16 05:41:36;;;;;;;33.15;18.23;;;;;;;-139.48;100.00;61774.03;4975859;28;20049;-68
2021/11/16 05:44:20;;;;;;;35.65;17.48;;;;;;;-139.48;100.00;61774.03;4975387;28;20085;-68
2021/11/16 05:47:04;;;;;;;33.25;17.30;;;;;;;-139.48;100.00;61774.03;4975992;28;20527;-68
2021/11/16 05:49:48;;;;;;;32.72;18.05;;;;;;;-139.48;100.00;61774.03;4962085;28;20041;-68
2021/11/16 05:52:32;;;;;;;;;;;;;;;-139.48;100.00;61774.03;4975902;28;20097;-68
2021/11/16 05:55:16;;;;;;;29.77;17.20;;;;;;;-139.48;100.00;61774.03;4975549;28;20327;-68
2021/11/16 05:58:00;;;;;;;28.95;16.98;;;;;;;-139.48;100.00;61774.03;4975460;28;20060;-67
2021/11/16 06:00:45;;;;;;;32.10;17.73;;;;;;;-139.48;100.00;61774.03;4975477;28;20049;-68
2021/11/16 06:03:29;;;;;;;35.30;17.45;;;;;;;-139.48;100.00;61774.03;4975497;28;20101;-68
2021/11/16 06:06:13;;;;;;;32.58;16.98;;;;;;;-139.48;100.00;61774.03;4975392;28;20058;-67
2021/11/16 06:09:00;;;;;;;34.35;18.63;;;;;;;-139.48;100.00;61774.03;4961645;28;20109;-68
2021/11/16 06:11:44;;;;;;;30.90;17.70;;;;;;;-139.48;100.00;61774.03;4975067;28;20069;-68
2021/11/16 06:14:28;;;;;;;29.73;17.73;;;;;;;-139.48;100.00;61774.03;4975172;28;20062;-68
2021/11/16 06:17:12;;;;;;;36.78;18.80;;;;;;;-139.48;100.00;61774.03;4975218;28;20181;-68
2021/11/16 06:19:58;;;;;;;39.60;19.60;;;;;;;-139.48;100.00;61774.03;4961165;28;20138;-68
2021/11/16 06:22:42;;;;;;;34.95;19.13;;;;;;;-139.48;100.00;61774.03;4961406;28;20141;-67
2021/11/16 06:25:26;;;;;;;34.72;18.65;;;;;;;-139.48;100.00;61774.03;4974755;28;20142;-68
2021/11/16 06:28:10;;;;;;;;;;;;;;;-139.48;100.00;61774.03;4975149;28;20523;-67
2021/11/16 06:30:54;;;;;;;38.27;20.30;;;;;;;-139.48;100.00;61774.03;4974913;28;19968;-68
2021/11/16 06:33:38;;;;;;;43.08;21.27;;;;;;;-139.48;100.00;61774.03;4961228;28;20053;-67
2021/11/16 06:36:23;;;;;;;44.05;21.25;;;;;;;-139.48;100.00;61774.03;4974530;28;20122;-68
2021/11/16 06:39:16;;;;;;;43.72;21.40;;;;;;;-139.48;100.00;61774.03;4974735;28;20062;-67
2021/11/16 06:42:01;;;;;;;43.20;21.88;;;;;;;-139.48;100.00;61774.03;4960992;28;20096;-67
2021/11/16 06:44:46;;;;;;;39.92;22.15;;;;;;;-139.48;100.00;61774.03;4974728;28;20097;-67
2021/11/16 06:47:30;;;;;;;40.72;22.30;;;;;;;-139.48;100.00;61774.03;4974380;28;20554;-67
2021/11/16 06:50:14;;;;;;;41.22;23.13;;;;;;;-139.48;100.00;61774.03;4974249;28;20097;-68
2021/11/16 06:52:58;;;;;;;52.42;23.88;;;;;;;-139.48;100.00;61774.03;4960692;28;20054;-67
2021/11/16 06:55:42;;;;;;;51.75;24.25;;;;;;;-139.48;100.00;61774.03;4974868;28;20050;-67
2021/11/16 06:58:27;;;;;;;45.55;22.48;;;;;;;-139.48;100.00;61774.03;4974308;28;20042;-68
2021/11/16 07:01:11;;;;;;;48.38;24.13;;;;;;;-139.48;100.00;61774.03;4974452;28;20097;-68
2021/11/16 07:03:58;;;;;;;53.55;23.83;;;;;;;-139.48;100.00;61774.03;4960483;28;20138;-67
2021/11/16 07:06:44;;;;;;;49.17;24.90;;;;;;;-139.48;100.00;61774.03;4974426;28;20521;-68
2021/11/16 07:09:34;;;;;;;43.80;23.08;;;;;;;-139.48;100.00;61774.03;4975225;28;20563;-67
2021/11/16 07:12:24;;;;;;;53.75;25.60;;;;;;;-139.48;100.00;61774.03;5011120;23;20057;-65
2021/11/16 07:15:09;;;;;;;52.50;24.02;;;;;;;-139.48;100.00;61774.03;4973987;28;20092;-65
2021/11/16 07:18:00;;;;;;;46.58;23.38;;;;;;;-139.48;100.00;61774.03;4960671;28;20511;-65
2021/11/16 07:20:46;;;;;;;46.72;23.92;;;;;;;-139.48;100.00;61774.03;4973703;28;20142;-66
2021/11/16 07:23:30;;;;;;;43.97;24.63;;;;;;;-139.48;100.00;61774.03;4973795;28;20065;-65
2021/11/16 07:26:15;;;;;;;50.47;23.98;;;;;;;-139.48;100.00;61774.03;4973959;28;20086;-65
2021/11/16 07:28:59;;;;;;;49.22;24.73;;;;;;;-139.48;100.00;61774.03;4973667;28;20137;-65
2021/11/16 07:31:43;;;;;;;49.80;24.67;;;;;;;-139.48;100.00;61774.03;4974640;28;20467;-65
2021/11/16 07:34:29;;;;;;;56.28;26.33;;;;;;;-139.48;100.00;61774.03;4974632;28;20580;-65
2021/11/16 07:37:16;;;;;;;50.58;26.17;;;;;;;-139.48;100.00;61774.03;4960235;28;20098;-65
2021/11/16 07:40:03;;;;;;;53.30;25.92;;;;;;;-139.48;100.00;61774.03;4974779;28;20094;-65
2021/11/16 07:42:47;;;;;;;50.28;25.95;;;;;;;-139.48;100.00;61774.03;4974509;28;20522;-65
2021/11/16 07:45:43;;;;;;;49.95;25.83;;;;;;;-139.48;100.00;61774.03;4974516;28;20050;-65
2021/11/16 07:48:28;;;;;;;50.58;24.60;;;;;;;-139.48;100.00;61774.03;4973597;28;20050;-65
2021/11/16 07:51:13;;;;;;;48.22;25.27;;;;;;;-139.48;100.00;61774.03;4973628;28;20062;-65
2021/11/16 07:53:57;;;;;;;52.45;24.73;;;;;;;-139.48;100.00;61774.03;4973425;28;20094;-65
2021/11/16 07:56:41;;;;;;;50.58;24.88;;;;;;;-139.48;100.00;61774.03;4973853;28;20057;-64
2021/11/16 07:59:25;;;;;;;49.88;24.35;;;;;;;-139.48;100.00;61774.03;4973622;28;20050;-65
2021/11/16 08:02:20;;;;;;;46.00;23.25;;;;;;;-139.48;100.00;61774.03;4973395;28;20196;-64
2021/11/16 08:05:34;;;;;;;49.25;25.52;;;;;;;-139.48;100.00;61774.03;4961067;28;20050;-65
2021/11/16 08:08:24;;;;;;;52.13;24.67;;;;;;;-139.48;100.00;61774.03;4975910;28;20074;-65
2021/11/16 08:11:20;;;;;;;50.88;25.77;;;;;;;-139.48;100.00;61774.03;4977198;28;20097;-64
2021/11/16 08:14:15;;;;;;;49.58;25.17;;;;;;;-139.48;100.00;61774.03;4977876;28;20057;-63
2021/11/16 08:17:01;;;;;;;47.95;23.75;;;;;;;-139.48;100.00;61774.03;4976564;28;20511;-64
2021/11/16 08:19:45;;;;;;;48.92;26.25;;;;;;;-139.48;100.00;61774.03;4977784;28;20057;-61
2021/11/16 08:22:29;;;;;;;53.22;26.30;;;;;;;-139.48;100.00;61774.03;4976439;28;20054;-63
2021/11/16 08:25:13;;;;;;;49.50;26.27;;;;;;;-139.48;100.00;61774.03;4976603;28;20195;-63
2021/11/16 08:27:57;;;;;;;53.00;25.67;;;;;;;-139.48;100.00;61774.03;4976233;28;20066;-61
2021/11/16 08:30:41;;;;;;;48.42;25.08;;;;;;;-139.48;100.00;61774.03;4977518;28;20053;-63
2021/11/16 08:33:27;;;;;;;45.88;24.75;;;;;;;-139.48;100.00;61774.03;4976439;28;20065;-59
2021/11/16 08:36:11;;;;;;;49.05;23.98;;;;;;;-139.48;100.00;61774.03;4976418;28;20073;-63
2021/11/16 08:38:57;;;;;;;44.78;22.67;;;;;;;-139.48;100.00;61774.03;4976307;28;20049;-65
2021/11/16 08:41:41;;;;;;;49.50;25.08;;;;;;;-139.48;100.00;61774.03;4976328;28;20054;-65
2021/11/16 08:44:31;;;;;;;48.47;23.92;;;;;;;-139.48;100.00;61774.03;4977250;28;20458;-65
2021/11/16 08:47:15;;;;;;;48.40;24.30;;;;;;;-139.48;100.00;61774.03;4976282;28;20049;-62
2021/11/16 08:50:00;;;;;;;49.00;23.63;;;;;;;-139.48;100.00;61774.03;4977151;28;20356;-62
2021/11/16 08:52:44;;;;;;;49.05;24.73;;;;;;;-139.48;100.00;61774.03;4976857;28;20057;-63
2021/11/16 08:55:31;;;;;;;52.28;25.73;;;;;;;-139.48;100.00;61774.03;4976835;28;20176;-63
2021/11/16 08:58:16;;;;;;;52.85;25.73;;;;;;;-139.48;100.00;61774.03;4962325;28;20419;-62
2021/11/16 09:01:03;;;;;;;49.25;25.65;;;;;;;-139.48;100.00;61774.03;4975755;28;20054;-63
2021/11/16 09:03:48;;;;;;;54.47;25.48;;;;;;;-139.48;100.00;61774.03;4961997;28;20057;-63
2021/11/16 09:06:32;;;;;;;49.38;25.27;;;;;;;-139.48;100.00;61774.03;4976830;28;20138;-64
2021/11/16 09:09:17;;;;;;;47.15;25.15;;;;;;;-139.48;100.00;61774.03;4976510;28;20412;-64
2021/11/16 09:12:06;;;;;;;46.78;23.70;;;;;;;-139.48;100.00;61774.03;4976590;28;20471;-64
2021/11/16 09:14:56;;;;;;;48.15;25.48;;;;;;;-139.48;100.00;61774.03;4976643;28;20038;-68
2021/11/16 09:17:40;;;;;;;45.35;23.50;;;;;;;-139.48;100.00;61774.03;4962080;28;20519;-66
2021/11/16 09:20:26;;;;;;;53.13;25.02;;;;;;;-139.48;100.00;61774.03;4974987;28;20530;-67
2021/11/16 09:23:24;;;;;;;39.38;22.10;;;;;;;-139.48;100.00;61774.03;4975532;28;20050;-67
2021/11/16 09:26:20;;;;;;;46.30;23.90;;;;;;;-139.48;100.00;61774.03;4976352;28;20049;-65
2021/11/16 09:29:12;;;;;;;46.35;24.15;;;;;;;-139.48;100.00;61774.03;4975325;28;20357;-65
2021/11/16 09:32:05;;;;;;;48.75;25.42;;;;;;;-139.48;100.00;61774.03;4975220;28;20045;-65
2021/11/16 09:34:51;;;;;;;48.28;25.73;;;;;;;-139.48;100.00;61774.03;4976054;28;20049;-64
2021/11/16 09:37:38;;;;;;;51.58;24.92;;;;;;;-139.48;100.00;61774.03;4975050;28;20120;-65
2021/11/16 09:40:22;;;;;;;43.10;22.80;;;;;;;-139.48;100.00;61774.03;4961905;28;20105;-67
2021/11/16 09:43:06;;;;;;;44.38;24.73;;;;;;;-139.48;100.00;61774.03;4975083;28;20045;-66
2021/11/16 09:45:50;;;;;;;42.63;22.40;;;;;;;-139.48;100.00;61774.03;4974837;28;20132;-65
2021/11/16 09:48:37;;;;;;;44.00;22.20;;;;;;;-139.48;100.00;61774.03;4976121;28;20057;-66
2021/11/16 09:51:22;;;;;;;44.22;23.50;;;;;;;-139.48;100.00;61774.03;4975934;28;20054;-65
2021/11/16 09:54:08;;;;;;;47.35;24.70;;;;;;;-139.48;100.00;61774.03;4974765;28;20142;-65
2021/11/16 09:57:05;;;;;;;47.22;25.30;;;;;;;-139.48;100.00;61774.03;4974748;28;20049;-64
2021/11/16 09:59:50;;;;;;;41.25;22.35;;;;;;;-139.48;100.00;61774.03;4975001;28;20101;-65
2021/11/16 10:02:36;;;;;;;45.65;23.63;;;;;;;-139.48;100.00;61774.03;4960937;28;20082;-64
2021/11/16 10:05:22;;;;;;;51.25;24.30;;;;;;;-139.48;100.00;61774.03;4961209;28;20066;-65
2021/11/16 10:08:07;;;;;;;44.28;24.45;;;;;;;-139.48;100.00;61774.03;4961060;28;20098;-65
2021/11/16 10:10:56;;;;;;;50.25;24.30;;;;;;;-139.48;100.00;61774.03;4974661;28;20109;-65
2021/11/16 10:13:40;;;;;;;49.13;24.77;;;;;;;-139.48;100.00;61774.03;4974409;28;20081;-65
2021/11/16 10:16:24;;;;;;;44.58;22.63;;;;;;;-139.48;100.00;61774.03;4975488;28;20424;-64
2021/11/16 10:19:08;;;;;;;45.90;24.83;;;;;;;-139.48;100.00;61774.03;4975596;28;20137;-65
2021/11/16 10:21:51;;;;;;;46.25;23.83;;;;;;;-139.48;100.00;61774.03;4974354;28;20053;-65
2021/11/16 10:24:36;;;;;;;49.85;24.83;;;;;;;-139.48;100.00;61774.03;4975492;28;20423;-64
2021/11/16 10:27:23;;;;;;;48.47;26.60;;;;;;;-139.48;100.00;61774.03;4974192;28;20511;-65
2021/11/16 10:30:14;;;;;;;41.58;23.15;;;;;;;-139.48;100.00;61774.03;4974719;28;20061;-65
2021/11/16 10:33:14;;;;;;;43.63;24.60;;;;;;;-139.48;100.00;61774.03;4974972;28;20412;-65
2021/11/16 10:36:14;;;;;;;41.95;22.25;;;;;;;-139.48;100.00;61774.03;4974104;28;20178;-65
2021/11/16 10:39:01;;;;;;;44.75;24.60;;;;;;;-139.48;100.00;61774.03;4975150;28;20081;-65
2021/11/16 10:41:45;;;;;;;38.88;21.20;;;;;;;-139.48;100.00;61774.03;4973937;28;20113;-65
2021/11/16 10:44:31;;;;;;;43.22;23.90;;;;;;;-139.48;100.00;61774.03;4974964;28;20571;-65
2021/11/16 10:47:19;;;;;;;43.28;22.58;;;;;;;-139.48;100.00;61774.03;4974767;28;20094;-66
2021/11/16 10:50:09;;;;;;;43.00;23.88;;;;;;;-139.48;100.00;61774.03;4974654;28;20050;-64
2021/11/16 10:53:07;;;;;;;41.90;21.70;;;;;;;10.57;97.88;99574.78;5070682;28;20379;-64
2021/11/16 10:55:52;;;;;;;44.22;22.38;;;;;;;10.51;98.48;99564.94;5069943;28;20171;-66
2021/11/16 10:58:39;;;;;;;45.58;21.60;;;;;;;10.52;98.85;99569.16;5070145;28;20600;-66
2021/11/16 11:01:24;;;;;;;39.03;20.67;;;;;;;10.56;99.51;99578.31;5068692;28;20496;-67
2021/11/16 11:04:12;;;;;;;40.20;21.67;;;;;;;10.57;98.33;99573.97;5068815;28;20555;-64
2021/11/16 11:07:09;;;;;;;46.50;23.75;;;;;;;10.52;98.35;99569.16;5069912;28;20039;-66
2021/11/16 11:09:57;;;;;;;48.20;23.20;;;;;;;10.56;98.27;99572.34;5068725;28;20044;-65
2021/11/16 11:12:41;;;;;;;44.00;22.45;;;;;;;10.59;98.14;99572.94;5068619;28;20418;-65
2021/11/16 11:15:32;;;;;;;43.55;22.88;;;;;;;10.64;97.87;99562.22;5069843;28;20418;-66
2021/11/16 11:18:37;;;;;;;40.90;21.52;;;;;;;10.70;96.75;99548.75;5068734;28;20056;-66
2021/11/16 11:21:39;;;;;;;;;;;;;;;10.73;97.20;99553.69;5069856;28;20091;-66
2021/11/16 11:24:28;;;;;;;40.10;21.67;;;;;;;10.80;97.38;99550.50;5069652;28;20384;-65
2021/11/16 11:30:00;;;;;;;35.90;18.35;;;;;;;10.64;97.42;99539.72;5068741;28;20063;-65
2021/11/16 11:32:47;;;;;;;36.85;18.30;;;;;;;10.58;96.88;99535.06;5069254;28;20093;-66
2021/11/16 11:35:31;;;;;;;36.00;19.52;;;;;;;10.42;98.18;99532.03;5069159;28;20609;-66
2021/11/16 11:38:15;;;;;;;31.35;17.95;;;;;;;10.44;98.20;99534.50;5068288;28;20046;-66
2021/11/16 11:40:59;;;;;;;33.17;19.48;;;;;;;10.43;98.64;99531.06;5069363;28;20489;-66
2021/11/16 11:43:47;;;;;;;36.05;20.08;;;;;;;10.44;99.26;99531.91;5068053;28;20105;-66
2021/11/16 11:46:53;;;;;;;33.30;17.52;;;;;;;10.44;98.11;99526.75;5068219;28;20235;-66
2021/11/16 11:49:39;;;;;;;32.72;18.10;;;;;;;10.43;98.06;99541.44;5068793;28;20103;-66
2021/11/16 11:52:23;;;;;;;36.17;18.75;;;;;;;10.46;98.18;99530.81;5068490;28;20044;-66
2021/11/16 11:55:07;;;;;;;32.45;18.20;;;;;;;10.49;98.53;99530.59;5068919;28;20099;-65
2021/11/16 11:57:51;;;;;;;33.03;17.88;;;;;;;10.45;97.84;99524.00;5067770;28;20079;-66
2021/11/16 12:00:37;;;;;;;31.13;18.20;;;;;;;10.51;97.38;99526.13;5067810;28;20114;-66
2021/11/16 12:03:21;;;;;;;35.70;18.15;;;;;;;10.54;97.38;99525.88;5060199;28;20422;-66
2021/11/16 12:06:07;;;;;;;33.58;18.13;;;;;;;10.62;96.78;99530.44;5055618;28;20154;-67
2021/11/16 12:08:51;;;;;;;35.58;18.15;;;;;;;10.62;96.90;99520.91;5055529;28;20194;-65
2021/11/16 12:11:35;;;;;;;34.95;18.50;;;;;;;10.62;96.87;99526.09;5055013;28;20067;-67
2021/11/16 12:14:42;;;;;;;29.80;17.45;;;;;;;10.63;97.16;99522.53;5054364;28;20056;-66
2021/11/16 12:17:30;;;;;;;32.15;17.42;;;;;;;10.72;96.28;99514.03;5054262;28;20047;-65
2021/11/16 12:20:35;;;;;;;31.77;17.48;;;;;;;10.70;96.51;99518.53;5055213;28;20555;-67
2021/11/16 12:23:21;;;;;;;;;;;;;;;10.72;95.70;99513.22;5054633;28;20409;-67
2021/11/16 12:26:08;;;;;;;30.92;17.77;;;;;;;10.74;95.63;99512.16;5053831;28;20290;-67
2021/11/16 12:28:53;;;;;;;159.10;93.68;;;;;;;10.74;95.60;99506.97;5054840;28;20051;-66
2021/11/16 12:31:37;;;;;;;41.22;24.02;;;;;;;10.78;95.69;99505.78;5053574;28;20059;-66
2021/11/16 12:34:38;;;;;;;30.83;17.63;;;;;;;10.79;94.79;99507.44;5053957;28;20524;-67
2021/11/16 12:37:43;;;;;;;72.40;43.45;;;;;;;10.80;94.59;99503.06;5053625;28;20114;-66
2021/11/16 12:40:29;;;;;;;;;;;;;;;10.79;94.39;99497.06;5054279;28;20183;-66